createdAt,value
2023-01-07T00:00:14.755Z,6.96
2023-01-07T00:01:22.306Z,7.10
2023-01-07T00:02:24.006Z,7.01
2023-01-07T00:03:25.755Z,7.00
2023-01-07T00:04:27.369Z,6.96
2023-01-07T00:05:29.017Z,6.87
2023-01-07T00:06:33.404Z,6.85
2023-01-07T00:07:35.066Z,6.87
2023-01-07T00:08:38.209Z,6.97
2023-01-07T00:09:39.884Z,6.86
2023-01-07T00:10:41.494Z,6.84
2023-01-07T00:11:43.190Z,6.85
2023-01-07T00:12:44.816Z,6.89
2023-01-07T00:13:48.559Z,6.83
2023-01-07T00:14:50.129Z,6.79
2023-01-07T00:15:51.827Z,6.93
2023-01-07T00:16:53.471Z,6.90
2023-01-07T00:17:55.099Z,6.95
2023-01-07T00:18:58.635Z,6.97
2023-01-07T00:20:00.220Z,6.92
2023-01-07T00:21:04.178Z,6.93
2023-01-07T00:22:05.782Z,6.94
2023-01-07T00:23:07.377Z,7.02
2023-01-07T00:24:10.600Z,7.05
2023-01-07T00:25:12.241Z,7.05
2023-01-07T00:26:19.360Z,7.03
2023-01-07T00:27:21.572Z,6.97
2023-01-07T00:28:23.225Z,7.00
2023-01-07T00:29:24.774Z,7.06
2023-01-07T00:30:26.414Z,7.07
2023-01-07T00:31:30.498Z,6.99
2023-01-07T00:32:59.365Z,7.02
2023-01-07T00:34:01.658Z,7.02
2023-01-07T00:35:04.168Z,7.04
2023-01-07T00:36:08.582Z,7.02
2023-01-07T00:37:28.622Z,7.03
2023-01-07T00:38:30.691Z,7.00
2023-01-07T00:39:32.284Z,7.07
2023-01-07T00:40:35.538Z,7.10
2023-01-07T00:41:37.571Z,7.10
2023-01-07T00:42:54.266Z,7.00
2023-01-07T00:43:56.346Z,7.02
2023-01-07T00:44:57.943Z,7.01
2023-01-07T00:45:59.690Z,7.04
2023-01-07T00:47:01.586Z,7.08
2023-01-07T00:48:04.262Z,7.07
2023-01-07T00:49:05.963Z,6.99
2023-01-07T00:50:07.915Z,7.03
2023-01-07T00:51:09.910Z,6.90
2023-01-07T00:52:11.561Z,6.90
2023-01-07T00:53:13.235Z,6.89
2023-01-07T00:54:14.913Z,6.86
2023-01-07T00:55:17.311Z,6.92
2023-01-07T00:56:19.177Z,6.92
2023-01-07T00:57:20.799Z,6.87
2023-01-07T00:58:24.784Z,6.80
2023-01-07T00:59:27.537Z,6.87
2023-01-07T01:00:29.371Z,6.94
2023-01-07T01:01:31.129Z,6.91
2023-01-07T01:02:32.904Z,6.85
2023-01-07T01:03:34.969Z,6.81
2023-01-07T01:04:37.156Z,6.89
2023-01-07T01:05:39.309Z,6.86
2023-01-07T01:06:40.952Z,6.85
2023-01-07T01:07:42.839Z,6.85
2023-01-07T01:08:45.780Z,6.87
2023-01-07T01:09:47.382Z,6.88
2023-01-07T01:10:48.983Z,7.01
2023-01-07T01:11:50.661Z,6.91
2023-01-07T01:12:52.282Z,6.85
2023-01-07T01:13:53.885Z,6.84
2023-01-07T01:14:55.494Z,6.94
2023-01-07T01:15:57.167Z,7.06
2023-01-07T01:16:58.881Z,6.88
2023-01-07T01:18:00.458Z,6.82
2023-01-07T01:19:02.076Z,6.86
2023-01-07T01:20:04.038Z,6.98
2023-01-07T01:21:07.927Z,6.89
2023-01-07T01:22:09.563Z,6.99
2023-01-07T01:23:11.574Z,7.00
2023-01-07T01:24:13.437Z,6.91
2023-01-07T01:25:15.409Z,6.97
2023-01-07T01:26:17.410Z,6.91
2023-01-07T01:27:19.397Z,6.97
2023-01-07T01:28:20.979Z,7.01
2023-01-07T01:29:22.591Z,6.94
2023-01-07T01:30:24.840Z,6.98
2023-01-07T01:31:26.665Z,7.01
2023-01-07T01:32:29.396Z,7.00
2023-01-07T01:33:31.200Z,6.94
2023-01-07T01:34:32.998Z,6.87
2023-01-07T01:35:34.562Z,6.85
2023-01-07T01:36:37.034Z,6.92
2023-01-07T01:37:38.642Z,7.00
2023-01-07T01:38:41.260Z,6.86
2023-01-07T01:39:43.473Z,6.78
2023-01-07T01:40:45.133Z,6.81
2023-01-07T01:41:47.485Z,6.78
2023-01-07T01:42:49.030Z,6.76
2023-01-07T01:43:52.925Z,6.74
2023-01-07T01:44:56.677Z,6.72
2023-01-07T01:46:21.949Z,6.71
2023-01-07T01:47:42.972Z,6.70
2023-01-07T01:48:49.119Z,6.86
2023-01-07T01:50:10.928Z,6.82
2023-01-07T01:51:13.790Z,6.97
2023-01-07T01:52:21.314Z,7.07
2023-01-07T01:53:34.499Z,7.07
2023-01-07T01:54:36.338Z,6.86
2023-01-07T01:55:42.036Z,6.85
2023-01-07T01:56:45.584Z,6.94
2023-01-07T01:57:48.816Z,6.80
2023-01-07T01:58:56.833Z,6.76
2023-01-07T01:59:58.788Z,6.69
2023-01-07T02:01:01.606Z,6.93
2023-01-07T02:02:07.216Z,6.68
2023-01-07T02:03:12.148Z,6.61
2023-01-07T02:04:16.564Z,6.57
2023-01-07T02:05:18.521Z,6.66
2023-01-07T02:06:25.396Z,6.65
2023-01-07T02:07:28.213Z,6.78
2023-01-07T02:08:32.088Z,6.77
2023-01-07T02:09:37.429Z,6.79
2023-01-07T02:10:40.107Z,6.75
2023-01-07T02:11:54.528Z,6.72
2023-01-07T02:13:20.987Z,6.73
2023-01-07T02:14:47.306Z,6.84
2023-01-07T02:16:07.603Z,6.73
2023-01-07T02:17:23.240Z,6.70
2023-01-07T02:18:45.885Z,6.63
2023-01-07T02:20:05.898Z,6.69
2023-01-07T02:21:48.784Z,6.71
2023-01-07T02:23:16.569Z,6.86
2023-01-07T02:24:51.735Z,6.79
2023-01-07T02:26:23.728Z,6.92
2023-01-07T02:27:30.959Z,6.99
2023-01-07T02:28:59.423Z,6.90
2023-01-07T02:30:25.367Z,6.85
2023-01-07T02:31:57.165Z,6.83
2023-01-07T02:33:01.404Z,6.75
2023-01-07T02:34:05.874Z,6.87
2023-01-07T02:35:16.620Z,6.75
2023-01-07T02:36:32.320Z,6.72
2023-01-07T02:37:53.863Z,6.65
2023-01-07T02:39:05.169Z,6.71
2023-01-07T02:40:32.367Z,6.67
2023-01-07T02:41:39.538Z,6.61
2023-01-07T02:43:06.868Z,6.71
2023-01-07T02:44:23.502Z,6.62
2023-01-07T02:45:29.804Z,6.64
2023-01-07T02:46:44.369Z,6.63
2023-01-07T02:47:55.095Z,6.64
2023-01-07T02:49:10.386Z,6.59
2023-01-07T02:50:12.092Z,6.54
2023-01-07T02:51:13.723Z,6.65
2023-01-07T02:52:41.237Z,6.61
2023-01-07T02:53:45.898Z,6.56
2023-01-07T02:54:57.193Z,6.56
2023-01-07T02:56:09.808Z,6.56
2023-01-07T02:57:14.278Z,6.65
2023-01-07T02:58:42.137Z,6.63
2023-01-07T03:00:08.584Z,6.68
2023-01-07T03:01:35.184Z,6.80
2023-01-07T03:03:06.252Z,6.64
2023-01-07T03:04:22.310Z,6.61
2023-01-07T03:05:44.840Z,6.52
2023-01-07T03:07:04.674Z,6.56
2023-01-07T03:08:34.020Z,6.49
2023-01-07T03:09:51.123Z,6.51
2023-01-07T03:11:05.416Z,6.51
2023-01-07T03:12:36.890Z,6.60
2023-01-07T03:13:49.502Z,6.50
2023-01-07T03:14:59.166Z,6.45
2023-01-07T03:16:06.041Z,6.39
2023-01-07T03:17:09.713Z,6.45
2023-01-07T03:18:44.308Z,6.33
2023-01-07T03:19:49.967Z,6.38
2023-01-07T03:20:54.851Z,6.37
2023-01-07T03:21:57.589Z,6.44
2023-01-07T03:22:59.321Z,6.50
2023-01-07T03:24:01.792Z,6.42
2023-01-07T03:25:05.830Z,6.56
2023-01-07T03:26:07.470Z,6.49
2023-01-07T03:27:09.464Z,6.42
2023-01-07T03:28:12.342Z,6.43
2023-01-07T03:29:15.324Z,6.43
2023-01-07T03:30:19.305Z,6.44
2023-01-07T03:31:22.534Z,6.51
2023-01-07T03:32:32.159Z,6.52
2023-01-07T03:33:41.163Z,6.52
2023-01-07T03:34:43.604Z,6.42
2023-01-07T03:35:47.931Z,6.42
2023-01-07T03:37:00.395Z,6.42
2023-01-07T03:38:03.474Z,6.34
2023-01-07T03:39:07.445Z,6.33
2023-01-07T03:40:11.800Z,6.48
2023-01-07T03:41:33.901Z,6.62
2023-01-07T03:42:42.721Z,6.59
2023-01-07T03:43:50.112Z,6.46
2023-01-07T03:44:52.004Z,6.55
2023-01-07T03:45:55.416Z,6.62
2023-01-07T03:46:56.935Z,6.63
2023-01-07T03:47:58.779Z,6.56
2023-01-07T03:49:06.837Z,6.54
2023-01-07T03:50:10.723Z,6.57
2023-01-07T03:51:15.783Z,6.54
2023-01-07T03:52:18.217Z,6.61
2023-01-07T03:53:19.856Z,6.45
2023-01-07T03:54:24.672Z,6.35
2023-01-07T03:55:26.342Z,6.52
2023-01-07T03:56:30.193Z,6.46
2023-01-07T03:57:33.178Z,6.51
2023-01-07T03:58:36.911Z,6.50
2023-01-07T03:59:39.354Z,6.55
2023-01-07T04:00:41.044Z,6.45
2023-01-07T04:01:49.212Z,6.33
2023-01-07T04:02:51.060Z,6.30
2023-01-07T04:03:57.585Z,6.29
2023-01-07T04:04:59.362Z,6.25
2023-01-07T04:06:00.980Z,6.40
2023-01-07T04:07:03.338Z,6.54
2023-01-07T04:08:05.299Z,6.51
2023-01-07T04:09:12.043Z,6.45
2023-01-07T04:10:13.894Z,6.44
2023-01-07T04:11:16.603Z,6.48
2023-01-07T04:12:18.716Z,6.39
2023-01-07T04:13:20.395Z,6.50
2023-01-07T04:14:24.208Z,6.31
2023-01-07T04:15:25.862Z,6.43
2023-01-07T04:16:27.751Z,6.49
2023-01-07T04:17:30.436Z,6.42
2023-01-07T04:18:32.461Z,6.42
2023-01-07T04:19:34.114Z,6.59
2023-01-07T04:20:35.850Z,6.52
2023-01-07T04:21:37.513Z,6.45
2023-01-07T04:22:39.983Z,6.36
2023-01-07T04:23:43.045Z,6.34
2023-01-07T04:24:45.424Z,6.43
2023-01-07T04:25:49.269Z,6.43
2023-01-07T04:26:54.501Z,6.38
2023-01-07T04:27:56.236Z,6.45
2023-01-07T04:28:58.434Z,6.46
2023-01-07T04:30:02.102Z,6.42
2023-01-07T04:31:08.873Z,6.42
2023-01-07T04:32:11.854Z,6.51
2023-01-07T04:33:13.494Z,6.36
2023-01-07T04:34:15.181Z,6.50
2023-01-07T04:35:17.562Z,6.36
2023-01-07T04:36:19.630Z,6.31
2023-01-07T04:37:22.493Z,6.44
2023-01-07T04:38:24.860Z,6.49
2023-01-07T04:39:28.673Z,6.33
2023-01-07T04:40:31.093Z,6.31
2023-01-07T04:41:33.428Z,6.40
2023-01-07T04:42:35.162Z,6.34
2023-01-07T04:43:37.354Z,6.36
2023-01-07T04:44:40.908Z,6.34
2023-01-07T04:45:42.727Z,6.30
2023-01-07T04:46:44.851Z,6.37
2023-01-07T04:47:46.489Z,6.35
2023-01-07T04:48:48.056Z,6.42
2023-01-07T04:49:49.730Z,6.33
2023-01-07T04:50:51.396Z,6.36
2023-01-07T04:51:53.714Z,6.31
2023-01-07T04:52:55.380Z,6.24
2023-01-07T04:53:58.411Z,6.35
2023-01-07T04:55:00.414Z,6.33
2023-01-07T04:56:02.617Z,6.33
2023-01-07T04:57:04.483Z,6.25
2023-01-07T04:58:06.035Z,6.26
2023-01-07T04:59:07.677Z,6.26
2023-01-07T05:00:10.170Z,6.23
2023-01-07T05:01:12.349Z,6.29
2023-01-07T05:02:14.491Z,6.31
2023-01-07T05:03:16.222Z,6.39
2023-01-07T05:04:18.441Z,6.29
2023-01-07T05:05:21.144Z,6.25
2023-01-07T05:06:23.427Z,6.21
2023-01-07T05:07:25.080Z,6.21
2023-01-07T05:08:27.436Z,6.19
2023-01-07T05:09:29.308Z,6.06
2023-01-07T05:10:31.299Z,6.11
2023-01-07T05:11:32.993Z,6.20
2023-01-07T05:12:35.910Z,6.15
2023-01-07T05:13:38.282Z,6.10
2023-01-07T05:14:40.346Z,6.17
2023-01-07T05:15:41.966Z,6.15
2023-01-07T05:16:43.692Z,6.23
2023-01-07T05:17:45.956Z,6.24
2023-01-07T05:18:48.159Z,6.19
2023-01-07T05:19:49.727Z,6.18
2023-01-07T05:20:51.316Z,6.26
2023-01-07T05:21:54.278Z,6.19
2023-01-07T05:22:56.216Z,6.25
2023-01-07T05:23:58.166Z,6.23
2023-01-07T05:24:59.795Z,6.23
2023-01-07T05:26:02.709Z,6.09
2023-01-07T05:27:06.129Z,6.06
2023-01-07T05:28:09.878Z,6.04
2023-01-07T05:29:13.103Z,6.16
2023-01-07T05:30:16.594Z,6.12
2023-01-07T05:31:20.508Z,6.15
2023-01-07T05:32:22.287Z,6.23
2023-01-07T05:33:25.148Z,6.16
2023-01-07T05:34:27.971Z,6.12
2023-01-07T05:35:29.935Z,6.04
2023-01-07T05:36:31.542Z,6.03
2023-01-07T05:37:33.172Z,5.99
2023-01-07T05:38:34.853Z,6.18
2023-01-07T05:39:36.648Z,6.32
2023-01-07T05:40:41.871Z,6.17
2023-01-07T05:41:43.785Z,6.35
2023-01-07T05:42:45.668Z,6.22
2023-01-07T05:43:47.469Z,6.09
2023-01-07T05:44:49.043Z,6.05
2023-01-07T05:45:50.700Z,6.10
2023-01-07T05:46:52.335Z,5.97
2023-01-07T05:47:53.889Z,5.96
2023-01-07T05:48:55.506Z,5.96
2023-01-07T05:49:57.153Z,5.96
2023-01-07T05:50:58.759Z,5.94
2023-01-07T05:52:00.419Z,5.86
2023-01-07T05:53:02.042Z,5.76
2023-01-07T05:54:04.144Z,5.67
2023-01-07T05:55:06.926Z,5.76
2023-01-07T05:56:08.470Z,5.76
2023-01-07T05:57:11.265Z,5.77
2023-01-07T05:58:13.043Z,5.77
2023-01-07T05:59:14.727Z,5.72
2023-01-07T06:00:16.841Z,5.72
2023-01-07T06:01:18.514Z,5.67
2023-01-07T06:02:20.354Z,5.65
2023-01-07T06:03:22.412Z,5.63
2023-01-07T06:04:23.957Z,5.50
2023-01-07T06:05:25.604Z,5.62
2023-01-07T06:06:27.126Z,5.80
2023-01-07T06:07:28.678Z,5.64
2023-01-07T06:08:30.227Z,5.59
2023-01-07T06:09:31.892Z,5.49
2023-01-07T06:10:33.717Z,5.50
2023-01-07T06:11:35.304Z,5.46
2023-01-07T06:12:36.961Z,5.42
2023-01-07T06:13:38.548Z,5.30
2023-01-07T06:14:40.153Z,5.34
2023-01-07T06:15:41.826Z,5.40
2023-01-07T06:16:43.467Z,5.31
2023-01-07T06:17:45.357Z,5.31
2023-01-07T06:18:46.961Z,5.35
2023-01-07T06:19:48.660Z,5.32
2023-01-07T06:20:50.945Z,5.35
2023-01-07T06:21:52.559Z,5.39
2023-01-07T06:22:54.394Z,5.47
2023-01-07T06:23:56.326Z,5.40
2023-01-07T06:24:57.849Z,5.32
2023-01-07T06:25:59.732Z,5.22
2023-01-07T06:27:01.360Z,5.10
2023-01-07T06:28:02.958Z,4.96
2023-01-07T06:29:04.623Z,4.96
2023-01-07T06:30:10.813Z,4.92
2023-01-07T06:31:12.522Z,4.94
2023-01-07T06:32:14.151Z,5.04
2023-01-07T06:33:16.316Z,4.93
2023-01-07T06:34:18.023Z,4.93
2023-01-07T06:35:19.685Z,4.83
2023-01-07T06:36:21.254Z,4.71
2023-01-07T06:37:22.852Z,4.58
2023-01-07T06:38:24.504Z,4.56
2023-01-07T06:39:26.207Z,4.50
2023-01-07T06:40:27.882Z,4.35
2023-01-07T06:41:29.558Z,4.22
2023-01-07T06:42:31.200Z,4.11
2023-01-07T06:43:32.807Z,4.07
2023-01-07T06:44:34.649Z,4.04
2023-01-07T06:45:36.319Z,4.03
2023-01-07T06:46:37.934Z,4.05
2023-01-07T06:47:39.584Z,3.99
2023-01-07T06:48:41.167Z,4.03
2023-01-07T06:49:42.810Z,3.94
2023-01-07T06:50:44.842Z,3.80
2023-01-07T06:51:46.535Z,3.84
2023-01-07T06:52:48.369Z,3.71
2023-01-07T06:53:49.956Z,3.60
2023-01-07T06:54:51.571Z,3.59
2023-01-07T06:55:53.191Z,3.63
2023-01-07T06:56:54.760Z,3.60
2023-01-07T06:57:56.300Z,3.60
2023-01-07T06:58:57.866Z,3.63
2023-01-07T06:59:59.480Z,3.59
2023-01-07T07:01:09.926Z,3.49
2023-01-07T07:02:20.364Z,3.48
2023-01-07T07:03:21.986Z,3.37
2023-01-07T07:04:23.590Z,3.35
2023-01-07T07:05:25.393Z,3.37
2023-01-07T07:06:27.166Z,3.43
2023-01-07T07:07:28.751Z,3.34
2023-01-07T07:08:30.443Z,3.33
2023-01-07T07:09:32.066Z,3.37
2023-01-07T07:10:33.725Z,3.44
2023-01-07T07:11:35.350Z,3.44
2023-01-07T07:12:38.233Z,3.33
2023-01-07T07:13:39.935Z,3.32
2023-01-07T07:14:41.599Z,3.18
2023-01-07T07:15:43.295Z,3.06
2023-01-07T07:16:44.930Z,3.10
2023-01-07T07:17:46.858Z,3.01
2023-01-07T07:18:48.540Z,3.00
2023-01-07T07:19:50.158Z,2.93
2023-01-07T07:20:51.756Z,2.90
2023-01-07T07:21:53.371Z,2.85
2023-01-07T07:22:54.934Z,2.78
2023-01-07T07:23:56.509Z,2.78
2023-01-07T07:24:58.090Z,2.77
2023-01-07T07:25:59.751Z,2.74
2023-01-07T07:27:01.356Z,2.70
2023-01-07T07:28:03.113Z,2.69
2023-01-07T07:29:04.772Z,2.63
2023-01-07T07:30:08.174Z,2.64
2023-01-07T07:31:09.968Z,2.63
2023-01-07T07:32:11.614Z,2.64
2023-01-07T07:33:14.906Z,2.57
2023-01-07T07:34:16.595Z,2.58
2023-01-07T07:35:18.355Z,2.53
2023-01-07T07:36:20.038Z,2.57
2023-01-07T07:37:22.036Z,2.61
2023-01-07T07:38:23.631Z,2.62
2023-01-07T07:39:25.278Z,2.69
2023-01-07T07:40:27.592Z,2.78
2023-01-07T07:41:30.726Z,2.87
2023-01-07T07:43:11.556Z,2.95
2023-01-07T07:43:56.936Z,2.97
2023-01-07T07:44:58.540Z,3.01
2023-01-07T07:46:00.150Z,3.07
2023-01-07T07:47:01.740Z,3.22
2023-01-07T07:48:05.933Z,3.32
2023-01-07T07:49:07.520Z,3.37
2023-01-07T07:50:09.207Z,3.42
2023-01-07T07:51:10.844Z,3.39
2023-01-07T07:52:12.519Z,3.48
2023-01-07T07:53:15.191Z,3.48
2023-01-07T07:54:16.813Z,3.52
2023-01-07T07:55:20.109Z,3.38
2023-01-07T07:56:27.777Z,3.26
2023-01-07T07:57:29.489Z,3.22
2023-01-07T07:58:31.130Z,3.14
2023-01-07T07:59:32.795Z,3.12
2023-01-07T08:00:34.524Z,3.12
2023-01-07T08:01:37.435Z,3.14
2023-01-07T08:02:39.334Z,3.23
2023-01-07T08:03:41.188Z,3.26
2023-01-07T08:04:42.932Z,3.25
2023-01-07T08:05:45.311Z,3.29
2023-01-07T08:06:46.899Z,3.24
2023-01-07T08:07:48.510Z,3.24
2023-01-07T08:08:50.116Z,3.15
2023-01-07T08:09:51.878Z,3.12
2023-01-07T08:10:55.925Z,3.09
2023-01-07T08:11:57.592Z,3.10
2023-01-07T08:12:59.310Z,3.10
2023-01-07T08:14:00.944Z,3.13
2023-01-07T08:15:02.615Z,3.12
2023-01-07T08:16:04.496Z,3.19
2023-01-07T08:17:06.191Z,3.29
2023-01-07T08:18:09.281Z,3.34
2023-01-07T08:19:11.273Z,3.32
2023-01-07T08:20:13.019Z,3.31
2023-01-07T08:21:14.615Z,3.34
2023-01-07T08:22:16.241Z,3.40
2023-01-07T08:23:17.869Z,3.43
2023-01-07T08:24:19.483Z,3.49
2023-01-07T08:25:21.107Z,3.52
2023-01-07T08:26:22.736Z,3.59
2023-01-07T08:27:24.409Z,3.59
2023-01-07T08:28:26.005Z,3.56
2023-01-07T08:29:27.586Z,3.57
2023-01-07T08:30:30.214Z,3.54
2023-01-07T08:31:31.837Z,3.58
2023-01-07T08:32:33.537Z,3.56
2023-01-07T08:33:37.699Z,3.57
2023-01-07T08:34:39.425Z,3.56
2023-01-07T08:35:41.032Z,3.65
2023-01-07T08:36:42.672Z,3.70
2023-01-07T08:37:44.657Z,3.69
2023-01-07T08:38:50.697Z,3.72
2023-01-07T08:39:52.363Z,3.78
2023-01-07T08:40:53.925Z,3.79
2023-01-07T08:41:55.558Z,3.90
2023-01-07T08:43:01.004Z,3.94
2023-01-07T08:44:02.543Z,3.92
2023-01-07T08:45:04.825Z,3.89
2023-01-07T08:46:06.421Z,3.89
2023-01-07T08:47:08.062Z,3.96
2023-01-07T08:48:09.639Z,3.95
2023-01-07T08:49:11.539Z,4.01
2023-01-07T08:50:13.156Z,4.10
2023-01-07T08:51:14.833Z,4.14
2023-01-07T08:52:16.457Z,4.21
2023-01-07T08:53:23.547Z,4.26
2023-01-07T08:54:25.160Z,4.28
2023-01-07T08:55:26.845Z,4.27
2023-01-07T08:56:28.589Z,4.35
2023-01-07T08:57:30.247Z,4.42
2023-01-07T08:58:31.850Z,4.69
2023-01-07T08:59:33.494Z,5.04
2023-01-07T09:00:35.202Z,5.47
2023-01-07T09:01:37.057Z,6.00
2023-01-07T09:02:38.913Z,6.68
2023-01-07T09:03:40.583Z,7.21
2023-01-07T09:04:42.339Z,7.68
2023-01-07T09:05:45.964Z,8.62
2023-01-07T09:06:47.567Z,9.18
2023-01-07T09:07:52.163Z,9.70
2023-01-07T09:08:53.790Z,10.15
2023-01-07T09:09:55.376Z,10.13
2023-01-07T09:10:57.011Z,10.17
2023-01-07T09:11:58.641Z,10.13
2023-01-07T09:13:00.305Z,10.47
2023-01-07T09:14:02.013Z,11.33
2023-01-07T09:15:04.003Z,11.54
2023-01-07T09:16:06.026Z,12.38
2023-01-07T09:17:07.759Z,12.90
2023-01-07T09:18:09.402Z,13.31
2023-01-07T09:19:11.049Z,13.66
2023-01-07T09:20:12.633Z,13.05
2023-01-07T09:21:14.270Z,12.55
2023-01-07T09:22:15.852Z,12.91
2023-01-07T09:23:17.693Z,13.15
2023-01-07T09:24:19.329Z,13.36
2023-01-07T09:25:20.969Z,13.44
2023-01-07T09:26:22.607Z,14.10
2023-01-07T09:27:24.318Z,14.17
2023-01-07T09:28:25.864Z,14.10
2023-01-07T09:29:27.533Z,13.80
2023-01-07T09:30:29.143Z,14.12
2023-01-07T09:31:30.835Z,13.63
2023-01-07T09:32:32.514Z,13.52
2023-01-07T09:33:34.430Z,13.56
2023-01-07T09:34:36.062Z,12.83
2023-01-07T09:35:37.626Z,12.78
2023-01-07T09:36:39.395Z,12.34
2023-01-07T09:37:41.323Z,11.78
2023-01-07T09:38:42.907Z,11.23
2023-01-07T09:39:44.602Z,11.11
2023-01-07T09:40:46.235Z,10.57
2023-01-07T09:42:13.635Z,10.52
2023-01-07T09:43:20.936Z,10.02
2023-01-07T09:44:40.824Z,9.89
2023-01-07T09:45:45.905Z,9.72
2023-01-07T09:46:48.286Z,9.57
2023-01-07T09:47:52.916Z,9.30
2023-01-07T09:48:58.500Z,9.11
2023-01-07T09:50:23.302Z,9.09
2023-01-07T09:51:38.060Z,8.91
2023-01-07T09:52:44.717Z,8.76
2023-01-07T09:53:48.913Z,8.73
2023-01-07T09:54:53.831Z,8.65
2023-01-07T09:56:11.791Z,8.59
2023-01-07T09:57:16.608Z,8.62
2023-01-07T09:58:19.573Z,8.83
2023-01-07T09:59:21.124Z,9.04
2023-01-07T10:00:24.472Z,9.11
2023-01-07T10:01:26.039Z,9.28
2023-01-07T10:02:45.172Z,9.59
2023-01-07T10:03:46.813Z,9.72
2023-01-07T10:05:02.129Z,10.00
2023-01-07T10:06:42.772Z,10.68
2023-01-07T10:08:30.084Z,11.31
2023-01-07T10:10:11.108Z,12.11
2023-01-07T10:11:17.324Z,12.02
2023-01-07T10:12:43.923Z,12.99
2023-01-07T10:13:53.130Z,13.60
2023-01-07T10:15:03.791Z,13.37
2023-01-07T10:16:28.229Z,13.41
2023-01-07T10:17:51.362Z,13.83
2023-01-07T10:19:08.588Z,13.66
2023-01-07T10:20:41.005Z,13.60
2023-01-07T10:21:53.739Z,13.74
2023-01-07T10:23:02.684Z,13.40
2023-01-07T10:24:29.032Z,13.83
2023-01-07T10:25:46.026Z,13.81
2023-01-07T10:26:50.522Z,13.63
2023-01-07T10:27:53.659Z,13.60
2023-01-07T10:28:58.896Z,13.63
2023-01-07T10:30:06.137Z,13.30
2023-01-07T10:31:15.947Z,13.81
2023-01-07T10:32:20.853Z,13.39
2023-01-07T10:33:29.816Z,13.46
2023-01-07T10:34:36.311Z,13.72
2023-01-07T10:35:40.033Z,13.91
2023-01-07T10:36:53.395Z,13.67
2023-01-07T10:37:58.320Z,13.86
2023-01-07T10:39:18.228Z,13.76
2023-01-07T10:40:41.917Z,13.68
2023-01-07T10:42:01.098Z,13.68
2023-01-07T10:43:22.567Z,13.47
2023-01-07T10:44:42.464Z,12.91
2023-01-07T10:45:50.709Z,12.79
2023-01-07T10:47:39.958Z,13.63
2023-01-07T10:48:41.475Z,13.87
2023-01-07T10:50:07.710Z,13.33
2023-01-07T10:51:31.147Z,13.76
2023-01-07T10:52:41.464Z,13.67
2023-01-07T10:54:07.697Z,13.69
2023-01-07T10:55:44.863Z,13.87
2023-01-07T10:56:54.575Z,13.53
2023-01-07T10:57:56.402Z,13.52
2023-01-07T10:58:58.276Z,13.32
2023-01-07T11:00:05.289Z,12.76
2023-01-07T11:01:07.987Z,12.10
2023-01-07T11:02:16.239Z,11.75
2023-01-07T11:03:24.765Z,11.98
2023-01-07T11:04:26.600Z,11.75
2023-01-07T11:05:34.846Z,11.83
2023-01-07T11:06:59.294Z,11.60
2023-01-07T11:08:04.292Z,11.46
2023-01-07T11:09:09.855Z,11.88
2023-01-07T11:10:36.123Z,11.96
2023-01-07T11:11:38.136Z,12.06
2023-01-07T11:12:40.840Z,12.21
2023-01-07T11:13:43.469Z,12.67
2023-01-07T11:14:46.724Z,12.37
2023-01-07T11:15:55.006Z,12.46
2023-01-07T11:17:08.780Z,12.36
2023-01-07T11:18:33.419Z,12.61
2023-01-07T11:20:01.281Z,13.04
2023-01-07T11:21:02.998Z,12.85
2023-01-07T11:22:28.177Z,13.24
2023-01-07T11:23:37.523Z,13.32
2023-01-07T11:24:39.188Z,12.91
2023-01-07T11:25:41.150Z,12.54
2023-01-07T11:26:42.791Z,13.09
2023-01-07T11:27:45.392Z,12.98
2023-01-07T11:28:51.812Z,12.90
2023-01-07T11:30:00.608Z,12.66
2023-01-07T11:31:02.534Z,12.93
2023-01-07T11:32:05.655Z,13.01
2023-01-07T11:33:07.566Z,13.09
2023-01-07T11:34:28.048Z,12.90
2023-01-07T11:35:29.609Z,13.00
2023-01-07T11:36:42.117Z,12.81
2023-01-07T11:37:47.457Z,12.53
2023-01-07T11:38:49.057Z,12.79
2023-01-07T11:39:58.893Z,12.81
2023-01-07T11:41:01.096Z,12.25
2023-01-07T11:42:37.268Z,12.65
2023-01-07T11:43:39.570Z,12.46
2023-01-07T11:44:41.173Z,12.81
2023-01-07T11:46:19.242Z,12.43
2023-01-07T11:47:17.486Z,12.71
2023-01-07T11:48:31.941Z,12.82
2023-01-07T11:49:41.154Z,12.04
2023-01-07T11:51:00.243Z,12.10
2023-01-07T11:52:01.881Z,12.04
2023-01-07T11:53:09.454Z,12.28
2023-01-07T11:54:21.237Z,12.31
2023-01-07T11:55:23.242Z,12.25
2023-01-07T11:56:33.519Z,12.34
2023-01-07T11:57:35.173Z,12.28
2023-01-07T11:58:45.002Z,12.58
2023-01-07T11:59:46.630Z,11.92
2023-01-07T12:01:19.367Z,12.02
2023-01-07T12:02:24.946Z,11.95
2023-01-07T12:03:26.638Z,11.43
2023-01-07T12:04:40.243Z,10.94
2023-01-07T12:05:45.080Z,11.04
2023-01-07T12:06:48.572Z,11.04
2023-01-07T12:07:51.174Z,11.04
2023-01-07T12:08:55.811Z,11.05
2023-01-07T12:09:57.400Z,10.91
2023-01-07T12:11:09.053Z,11.04
2023-01-07T12:12:34.167Z,10.63
2023-01-07T12:13:36.590Z,10.66
2023-01-07T12:14:38.963Z,10.55
2023-01-07T12:15:50.047Z,10.51
2023-01-07T12:16:51.984Z,10.37
2023-01-07T12:18:19.619Z,10.42
2023-01-07T12:19:34.214Z,10.41
2023-01-07T12:20:51.696Z,10.38
2023-01-07T12:22:02.239Z,10.28
2023-01-07T12:23:09.865Z,10.33
2023-01-07T12:24:37.590Z,10.21
2023-01-07T12:25:59.688Z,10.16
2023-01-07T12:27:27.690Z,9.97
2023-01-07T12:28:44.704Z,9.91
2023-01-07T12:29:58.250Z,10.02
2023-01-07T12:31:09.407Z,10.08
2023-01-07T12:32:13.541Z,10.16
2023-01-07T12:33:36.452Z,10.17
2023-01-07T12:34:48.407Z,9.85
2023-01-07T12:35:50.555Z,9.82
2023-01-07T12:37:01.849Z,9.98
2023-01-07T12:38:09.305Z,9.87
2023-01-07T12:39:33.086Z,9.85
2023-01-07T12:40:41.745Z,9.82
2023-01-07T12:41:45.920Z,9.95
2023-01-07T12:43:01.445Z,9.83
2023-01-07T12:44:07.321Z,9.89
2023-01-07T12:45:42.112Z,9.85
2023-01-07T12:47:31.836Z,9.90
2023-01-07T12:48:36.905Z,9.80
2023-01-07T12:49:58.068Z,9.88
2023-01-07T12:51:00.059Z,9.81
2023-01-07T12:52:33.941Z,9.84
2023-01-07T12:53:51.450Z,9.67
2023-01-07T12:54:59.686Z,9.67
2023-01-07T12:56:06.967Z,9.57
2023-01-07T12:57:38.140Z,9.54
2023-01-07T12:59:02.112Z,9.55
2023-01-07T13:00:08.375Z,9.54
2023-01-07T13:01:37.073Z,9.47
2023-01-07T13:03:07.707Z,9.51
2023-01-07T13:04:21.428Z,9.47
2023-01-07T13:05:29.159Z,9.56
2023-01-07T13:06:33.335Z,9.58
2023-01-07T13:07:46.150Z,9.52
2023-01-07T13:08:57.295Z,9.53
2023-01-07T13:10:02.434Z,9.49
2023-01-07T13:11:14.437Z,9.38
2023-01-07T13:12:43.052Z,9.43
2023-01-07T13:13:49.698Z,9.35
2023-01-07T13:14:53.628Z,9.36
2023-01-07T13:15:56.838Z,9.37
2023-01-07T13:17:06.699Z,9.43
2023-01-07T13:18:10.995Z,9.43
2023-01-07T13:19:12.764Z,9.44
2023-01-07T13:20:16.078Z,9.44
2023-01-07T13:21:18.423Z,9.36
2023-01-07T13:22:35.344Z,9.24
2023-01-07T13:24:07.374Z,9.16
2023-01-07T13:25:32.856Z,9.02
2023-01-07T13:26:52.262Z,9.09
2023-01-07T13:27:56.598Z,8.88
2023-01-07T13:29:07.436Z,8.96
2023-01-07T13:30:28.560Z,9.00
2023-01-07T13:31:36.203Z,9.07
2023-01-07T13:32:56.611Z,9.04
2023-01-07T13:34:37.543Z,9.01
2023-01-07T13:35:57.475Z,8.95
2023-01-07T13:37:33.492Z,8.99
2023-01-07T13:39:05.110Z,8.83
2023-01-07T13:40:34.353Z,8.74
2023-01-07T13:42:06.814Z,8.69
2023-01-07T13:43:39.269Z,8.82
2023-01-07T13:44:52.486Z,8.75
2023-01-07T13:46:03.693Z,8.65
2023-01-07T13:47:05.567Z,8.74
2023-01-07T13:48:19.639Z,8.66
2023-01-07T13:49:30.004Z,8.68
2023-01-07T13:50:54.229Z,8.71
2023-01-07T13:51:57.022Z,8.79
2023-01-07T13:53:01.987Z,8.69
2023-01-07T13:54:04.147Z,8.59
2023-01-07T13:55:40.684Z,8.50
2023-01-07T13:56:42.465Z,8.53
2023-01-07T13:57:44.866Z,8.56
2023-01-07T13:58:53.231Z,8.57
2023-01-07T13:59:58.576Z,8.58
2023-01-07T14:01:03.233Z,8.65
2023-01-07T14:02:19.041Z,8.55
2023-01-07T14:03:33.090Z,8.50
2023-01-07T14:04:35.805Z,8.58
2023-01-07T14:05:37.456Z,8.53
2023-01-07T14:06:42.600Z,8.44
2023-01-07T14:07:48.669Z,8.45
2023-01-07T14:09:15.987Z,8.46
2023-01-07T14:10:24.328Z,8.37
2023-01-07T14:11:44.370Z,8.47
2023-01-07T14:13:00.922Z,8.37
2023-01-07T14:14:20.740Z,8.32
2023-01-07T14:15:46.247Z,8.34
2023-01-07T14:16:59.899Z,8.30
2023-01-07T14:18:31.116Z,8.37
2023-01-07T14:19:48.031Z,8.35
2023-01-07T14:20:55.293Z,8.42
2023-01-07T14:22:26.467Z,8.41
2023-01-07T14:23:40.765Z,8.37
2023-01-07T14:24:48.425Z,8.29
2023-01-07T14:26:24.038Z,8.33
2023-01-07T14:27:44.205Z,8.39
2023-01-07T14:29:04.257Z,8.38
2023-01-07T14:30:20.525Z,8.31
2023-01-07T14:31:27.654Z,8.34
2023-01-07T14:32:37.567Z,8.37
2023-01-07T14:33:46.702Z,8.36
2023-01-07T14:35:01.186Z,8.34
2023-01-07T14:36:08.288Z,8.35
2023-01-07T14:37:29.528Z,8.40
2023-01-07T14:38:33.988Z,8.48
2023-01-07T14:39:39.229Z,8.37
2023-01-07T14:40:40.836Z,8.33
2023-01-07T14:42:24.966Z,8.38
2023-01-07T14:43:51.504Z,8.24
2023-01-07T14:44:53.062Z,8.23
2023-01-07T14:45:54.935Z,8.18
2023-01-07T14:46:56.580Z,8.21